sensor_id;sensor_type;location;lat;lon;timestamp;P1;durP1;ratioP1;P2;durP2;ratioP2
5900;SDS011;2976;49.764;9.796;2022-10-20T00:01:12;20.60;;;12.37;;
5900;SDS011;2976;49.764;9.796;2022-10-20T00:03:39;22.33;;;13.30;;
5900;SDS011;2976;49.764;9.796;2022-10-20T00:06:05;25.67;;;12.33;;
5900;SDS011;2976;49.764;9.796;2022-10-20T00:08:39;22.77;;;12.67;;
5900;SDS011;2976;49.764;9.796;2022-10-20T00:11:06;24.33;;;15.40;;
5900;SDS011;2976;49.764;9.796;2022-10-20T00:13:32;20.80;;;13.40;;
5900;SDS011;2976;49.764;9.796;2022-10-20T00:15:58;28.87;;;14.90;;
5900;SDS011;2976;49.764;9.796;2022-10-20T00:18:26;26.43;;;14.60;;
5900;SDS011;2976;49.764;9.796;2022-10-20T00:20:52;29.73;;;14.80;;
5900;SDS011;2976;49.764;9.796;2022-10-20T00:23:18;30.10;;;15.13;;
5900;SDS011;2976;49.764;9.796;2022-10-20T00:25:44;27.20;;;15.67;;
5900;SDS011;2976;49.764;9.796;2022-10-20T00:28:10;22.70;;;15.30;;
5900;SDS011;2976;49.764;9.796;2022-10-20T00:30:36;25.70;;;15.73;;
5900;SDS011;2976;49.764;9.796;2022-10-20T00:33:02;24.07;;;14.80;;
5900;SDS011;2976;49.764;9.796;2022-10-20T00:35:29;26.20;;;15.13;;
5900;SDS011;2976;49.764;9.796;2022-10-20T00:37:56;29.40;;;16.03;;
5900;SDS011;2976;49.764;9.796;2022-10-20T00:40:22;28.40;;;15.83;;
5900;SDS011;2976;49.764;9.796;2022-10-20T00:42:47;34.10;;;16.17;;
5900;SDS011;2976;49.764;9.796;2022-10-20T00:45:14;28.60;;;15.20;;
5900;SDS011;2976;49.764;9.796;2022-10-20T00:47:48;29.77;;;17.33;;
5900;SDS011;2976;49.764;9.796;2022-10-20T00:50:25;25.33;;;16.13;;
5900;SDS011;2976;49.764;9.796;2022-10-20T00:52:54;29.00;;;16.27;;
5900;SDS011;2976;49.764;9.796;2022-10-20T00:55:23;32.17;;;16.20;;
5900;SDS011;2976;49.764;9.796;2022-10-20T00:57:51;25.13;;;16.67;;
5900;SDS011;2976;49.764;9.796;2022-10-20T01:00:20;33.03;;;16.83;;
5900;SDS011;2976;49.764;9.796;2022-10-20T01:02:46;29.00;;;16.43;;
5900;SDS011;2976;49.764;9.796;2022-10-20T01:05:14;29.50;;;18.47;;
5900;SDS011;2976;49.764;9.796;2022-10-20T01:07:39;31.50;;;18.00;;
5900;SDS011;2976;49.764;9.796;2022-10-20T01:10:05;42.53;;;17.67;;
5900;SDS011;2976;49.764;9.796;2022-10-20T01:15:26;34.30;;;17.40;;
5900;SDS011;2976;49.764;9.796;2022-10-20T01:26:53;23.63;;;16.10;;
5900;SDS011;2976;49.764;9.796;2022-10-20T01:29:27;27.63;;;16.40;;
5900;SDS011;2976;49.764;9.796;2022-10-20T01:32:10;29.97;;;16.70;;
5900;SDS011;2976;49.764;9.796;2022-10-20T01:37:40;28.50;;;16.27;;
5900;SDS011;2976;49.764;9.796;2022-10-20T01:40:24;26.97;;;16.67;;
5900;SDS011;2976;49.764;9.796;2022-10-20T01:42:58;34.03;;;17.27;;
5900;SDS011;2976;49.764;9.796;2022-10-20T01:45:27;26.97;;;16.73;;
5900;SDS011;2976;49.764;9.796;2022-10-20T01:47:56;28.47;;;16.97;;
5900;SDS011;2976;49.764;9.796;2022-10-20T01:50:25;33.70;;;17.53;;
5900;SDS011;2976;49.764;9.796;2022-10-20T01:52:55;36.90;;;15.73;;
5900;SDS011;2976;49.764;9.796;2022-10-20T01:55:21;28.13;;;16.30;;
5900;SDS011;2976;49.764;9.796;2022-10-20T02:00:49;33.60;;;17.00;;
5900;SDS011;2976;49.764;9.796;2022-10-20T02:08:44;25.83;;;16.33;;
5900;SDS011;2976;49.764;9.796;2022-10-20T02:14:17;23.20;;;15.57;;
5900;SDS011;2976;49.764;9.796;2022-10-20T02:16:46;25.07;;;16.60;;
5900;SDS011;2976;49.764;9.796;2022-10-20T02:19:22;35.97;;;17.70;;
5900;SDS011;2976;49.764;9.796;2022-10-20T02:21:51;29.83;;;16.63;;
5900;SDS011;2976;49.764;9.796;2022-10-20T02:24:19;35.00;;;16.43;;
5900;SDS011;2976;49.764;9.796;2022-10-20T02:26:50;28.90;;;15.53;;
5900;SDS011;2976;49.764;9.796;2022-10-20T02:29:19;31.40;;;14.87;;
5900;SDS011;2976;49.764;9.796;2022-10-20T02:31:46;22.60;;;15.70;;
5900;SDS011;2976;49.764;9.796;2022-10-20T02:34:12;32.07;;;14.87;;
5900;SDS011;2976;49.764;9.796;2022-10-20T02:36:39;31.00;;;15.83;;
5900;SDS011;2976;49.764;9.796;2022-10-20T02:39:07;30.30;;;15.20;;
5900;SDS011;2976;49.764;9.796;2022-10-20T02:41:33;25.17;;;14.77;;
5900;SDS011;2976;49.764;9.796;2022-10-20T02:43:59;32.47;;;15.73;;
5900;SDS011;2976;49.764;9.796;2022-10-20T02:46:25;27.27;;;16.90;;
5900;SDS011;2976;49.764;9.796;2022-10-20T02:48:50;25.17;;;14.97;;
5900;SDS011;2976;49.764;9.796;2022-10-20T02:51:16;20.27;;;14.83;;
5900;SDS011;2976;49.764;9.796;2022-10-20T02:53:42;24.33;;;15.67;;
5900;SDS011;2976;49.764;9.796;2022-10-20T02:56:08;24.27;;;15.80;;
5900;SDS011;2976;49.764;9.796;2022-10-20T02:58:34;27.13;;;17.00;;
5900;SDS011;2976;49.764;9.796;2022-10-20T03:00:59;27.17;;;15.27;;
5900;SDS011;2976;49.764;9.796;2022-10-20T03:03:25;37.70;;;16.63;;
5900;SDS011;2976;49.764;9.796;2022-10-20T03:05:51;24.97;;;15.33;;
5900;SDS011;2976;49.764;9.796;2022-10-20T03:08:19;31.63;;;15.63;;
5900;SDS011;2976;49.764;9.796;2022-10-20T03:10:45;36.57;;;16.80;;
5900;SDS011;2976;49.764;9.796;2022-10-20T03:13:10;28.33;;;15.40;;
5900;SDS011;2976;49.764;9.796;2022-10-20T03:15:38;31.53;;;16.33;;
5900;SDS011;2976;49.764;9.796;2022-10-20T03:18:04;26.57;;;14.63;;
5900;SDS011;2976;49.764;9.796;2022-10-20T03:20:29;22.23;;;15.00;;
5900;SDS011;2976;49.764;9.796;2022-10-20T03:22:55;23.87;;;15.00;;
5900;SDS011;2976;49.764;9.796;2022-10-20T03:25:21;33.90;;;15.87;;
5900;SDS011;2976;49.764;9.796;2022-10-20T03:27:46;25.73;;;15.67;;
5900;SDS011;2976;49.764;9.796;2022-10-20T03:30:13;27.93;;;14.90;;
5900;SDS011;2976;49.764;9.796;2022-10-20T03:32:39;25.77;;;15.90;;
5900;SDS011;2976;49.764;9.796;2022-10-20T03:35:05;26.40;;;15.27;;
5900;SDS011;2976;49.764;9.796;2022-10-20T03:37:30;22.43;;;14.90;;
5900;SDS011;2976;49.764;9.796;2022-10-20T03:39:56;22.80;;;14.53;;
5900;SDS011;2976;49.764;9.796;2022-10-20T03:42:21;26.23;;;15.10;;
5900;SDS011;2976;49.764;9.796;2022-10-20T03:44:47;28.23;;;16.43;;
5900;SDS011;2976;49.764;9.796;2022-10-20T03:47:12;25.33;;;15.73;;
5900;SDS011;2976;49.764;9.796;2022-10-20T03:49:39;21.27;;;15.47;;
5900;SDS011;2976;49.764;9.796;2022-10-20T03:52:05;24.37;;;15.70;;
5900;SDS011;2976;49.764;9.796;2022-10-20T03:54:30;22.27;;;15.00;;
5900;SDS011;2976;49.764;9.796;2022-10-20T03:56:56;23.90;;;15.43;;
5900;SDS011;2976;49.764;9.796;2022-10-20T03:59:22;31.57;;;16.67;;
5900;SDS011;2976;49.764;9.796;2022-10-20T04:01:47;28.80;;;16.53;;
5900;SDS011;2976;49.764;9.796;2022-10-20T04:04:13;23.97;;;15.27;;
5900;SDS011;2976;49.764;9.796;2022-10-20T04:06:39;26.83;;;15.30;;
5900;SDS011;2976;49.764;9.796;2022-10-20T04:09:04;34.33;;;16.87;;
5900;SDS011;2976;49.764;9.796;2022-10-20T04:11:30;22.07;;;15.17;;
5900;SDS011;2976;49.764;9.796;2022-10-20T04:13:56;26.60;;;16.20;;
5900;SDS011;2976;49.764;9.796;2022-10-20T04:16:22;25.60;;;16.07;;
5900;SDS011;2976;49.764;9.796;2022-10-20T04:18:48;29.30;;;16.90;;
5900;SDS011;2976;49.764;9.796;2022-10-20T04:21:15;29.10;;;17.43;;
5900;SDS011;2976;49.764;9.796;2022-10-20T04:23:41;32.97;;;16.77;;
5900;SDS011;2976;49.764;9.796;2022-10-20T04:26:07;26.63;;;17.10;;
5900;SDS011;2976;49.764;9.796;2022-10-20T04:28:36;24.10;;;16.20;;
5900;SDS011;2976;49.764;9.796;2022-10-20T04:31:02;24.83;;;16.67;;
5900;SDS011;2976;49.764;9.796;2022-10-20T04:33:28;28.80;;;17.70;;
5900;SDS011;2976;49.764;9.796;2022-10-20T04:35:55;33.87;;;16.30;;
5900;SDS011;2976;49.764;9.796;2022-10-20T04:38:29;28.73;;;17.83;;
5900;SDS011;2976;49.764;9.796;2022-10-20T04:40:56;26.60;;;17.40;;
5900;SDS011;2976;49.764;9.796;2022-10-20T04:43:23;29.77;;;17.03;;
5900;SDS011;2976;49.764;9.796;2022-10-20T04:45:48;24.47;;;16.80;;
5900;SDS011;2976;49.764;9.796;2022-10-20T04:48:14;27.23;;;15.83;;
5900;SDS011;2976;49.764;9.796;2022-10-20T04:50:41;29.77;;;16.87;;
5900;SDS011;2976;49.764;9.796;2022-10-20T04:53:07;32.77;;;17.40;;
5900;SDS011;2976;49.764;9.796;2022-10-20T04:55:33;34.83;;;16.90;;
5900;SDS011;2976;49.764;9.796;2022-10-20T04:57:59;25.47;;;16.70;;
5900;SDS011;2976;49.764;9.796;2022-10-20T05:00:25;28.13;;;16.77;;
5900;SDS011;2976;49.764;9.796;2022-10-20T05:02:50;27.57;;;16.27;;
5900;SDS011;2976;49.764;9.796;2022-10-20T05:05:16;28.07;;;17.07;;
5900;SDS011;2976;49.764;9.796;2022-10-20T05:07:41;20.73;;;15.57;;
5900;SDS011;2976;49.764;9.796;2022-10-20T05:10:07;24.20;;;16.50;;
5900;SDS011;2976;49.764;9.796;2022-10-20T05:12:33;31.73;;;17.00;;
5900;SDS011;2976;49.764;9.796;2022-10-20T05:14:58;27.27;;;15.57;;
5900;SDS011;2976;49.764;9.796;2022-10-20T05:17:24;20.50;;;15.57;;
5900;SDS011;2976;49.764;9.796;2022-10-20T05:19:49;27.10;;;16.63;;
5900;SDS011;2976;49.764;9.796;2022-10-20T05:22:15;23.17;;;14.80;;
5900;SDS011;2976;49.764;9.796;2022-10-20T05:24:40;29.53;;;16.80;;
5900;SDS011;2976;49.764;9.796;2022-10-20T05:27:06;27.20;;;16.80;;
5900;SDS011;2976;49.764;9.796;2022-10-20T05:29:31;23.93;;;15.37;;
5900;SDS011;2976;49.764;9.796;2022-10-20T05:31:57;27.93;;;15.27;;
5900;SDS011;2976;49.764;9.796;2022-10-20T05:34:22;21.53;;;14.67;;
5900;SDS011;2976;49.764;9.796;2022-10-20T05:36:48;19.37;;;14.43;;
5900;SDS011;2976;49.764;9.796;2022-10-20T05:39:16;22.50;;;14.63;;
5900;SDS011;2976;49.764;9.796;2022-10-20T05:41:41;23.90;;;15.23;;
5900;SDS011;2976;49.764;9.796;2022-10-20T05:44:07;25.43;;;14.40;;
5900;SDS011;2976;49.764;9.796;2022-10-20T05:46:36;31.97;;;16.53;;
5900;SDS011;2976;49.764;9.796;2022-10-20T05:49:05;24.50;;;15.33;;
5900;SDS011;2976;49.764;9.796;2022-10-20T05:51:32;26.47;;;16.00;;
5900;SDS011;2976;49.764;9.796;2022-10-20T05:53:59;26.27;;;15.17;;
5900;SDS011;2976;49.764;9.796;2022-10-20T05:56:26;20.20;;;14.60;;
5900;SDS011;2976;49.764;9.796;2022-10-20T05:58:52;23.43;;;16.20;;
5900;SDS011;2976;49.764;9.796;2022-10-20T06:01:19;29.47;;;16.33;;
5900;SDS011;2976;49.764;9.796;2022-10-20T06:03:53;24.60;;;15.50;;
5900;SDS011;2976;49.764;9.796;2022-10-20T06:06:20;23.87;;;14.57;;
5900;SDS011;2976;49.764;9.796;2022-10-20T06:08:47;19.27;;;13.20;;
5900;SDS011;2976;49.764;9.796;2022-10-20T06:11:14;25.47;;;15.53;;
5900;SDS011;2976;49.764;9.796;2022-10-20T06:13:40;20.73;;;14.70;;
5900;SDS011;2976;49.764;9.796;2022-10-20T06:16:07;21.13;;;14.70;;
5900;SDS011;2976;49.764;9.796;2022-10-20T06:18:43;20.80;;;13.80;;
5900;SDS011;2976;49.764;9.796;2022-10-20T06:21:10;20.17;;;13.67;;
5900;SDS011;2976;49.764;9.796;2022-10-20T06:23:40;20.40;;;15.37;;
5900;SDS011;2976;49.764;9.796;2022-10-20T06:26:07;21.53;;;14.53;;
5900;SDS011;2976;49.764;9.796;2022-10-20T06:28:37;23.60;;;15.10;;
5900;SDS011;2976;49.764;9.796;2022-10-20T06:33:49;27.63;;;15.87;;
5900;SDS011;2976;49.764;9.796;2022-10-20T06:36:16;18.80;;;14.27;;
5900;SDS011;2976;49.764;9.796;2022-10-20T06:38:43;33.53;;;15.30;;
5900;SDS011;2976;49.764;9.796;2022-10-20T06:41:09;25.67;;;14.50;;
5900;SDS011;2976;49.764;9.796;2022-10-20T06:43:37;20.30;;;13.47;;
5900;SDS011;2976;49.764;9.796;2022-10-20T06:46:03;29.50;;;14.10;;
5900;SDS011;2976;49.764;9.796;2022-10-20T06:48:31;27.70;;;15.13;;
5900;SDS011;2976;49.764;9.796;2022-10-20T06:50:59;23.97;;;14.80;;
5900;SDS011;2976;49.764;9.796;2022-10-20T06:53:34;20.20;;;13.50;;
5900;SDS011;2976;49.764;9.796;2022-10-20T06:58:30;22.80;;;14.50;;
5900;SDS011;2976;49.764;9.796;2022-10-20T07:00:57;20.03;;;14.10;;
5900;SDS011;2976;49.764;9.796;2022-10-20T07:03:22;19.53;;;13.77;;
5900;SDS011;2976;49.764;9.796;2022-10-20T07:05:48;30.10;;;15.83;;
5900;SDS011;2976;49.764;9.796;2022-10-20T07:08:13;20.13;;;14.63;;
5900;SDS011;2976;49.764;9.796;2022-10-20T07:10:39;19.67;;;14.70;;
5900;SDS011;2976;49.764;9.796;2022-10-20T07:13:04;25.63;;;14.87;;
5900;SDS011;2976;49.764;9.796;2022-10-20T07:15:30;33.33;;;15.60;;
5900;SDS011;2976;49.764;9.796;2022-10-20T07:17:55;20.83;;;15.03;;
5900;SDS011;2976;49.764;9.796;2022-10-20T07:20:21;20.80;;;14.83;;
5900;SDS011;2976;49.764;9.796;2022-10-20T07:22:46;22.00;;;14.70;;
5900;SDS011;2976;49.764;9.796;2022-10-20T07:25:12;23.03;;;15.40;;
5900;SDS011;2976;49.764;9.796;2022-10-20T07:27:37;21.53;;;15.10;;
5900;SDS011;2976;49.764;9.796;2022-10-20T07:30:03;24.47;;;15.87;;
5900;SDS011;2976;49.764;9.796;2022-10-20T07:32:29;35.03;;;18.77;;
5900;SDS011;2976;49.764;9.796;2022-10-20T07:34:55;27.90;;;16.17;;
5900;SDS011;2976;49.764;9.796;2022-10-20T07:37:21;31.70;;;18.43;;
5900;SDS011;2976;49.764;9.796;2022-10-20T07:39:46;33.10;;;19.83;;
5900;SDS011;2976;49.764;9.796;2022-10-20T07:42:12;19.37;;;15.10;;
5900;SDS011;2976;49.764;9.796;2022-10-20T07:44:37;17.33;;;13.80;;
5900;SDS011;2976;49.764;9.796;2022-10-20T07:47:03;23.30;;;15.70;;
5900;SDS011;2976;49.764;9.796;2022-10-20T07:49:28;19.40;;;15.50;;
5900;SDS011;2976;49.764;9.796;2022-10-20T07:51:54;22.50;;;15.70;;
5900;SDS011;2976;49.764;9.796;2022-10-20T07:54:19;23.87;;;13.63;;
5900;SDS011;2976;49.764;9.796;2022-10-20T07:56:45;21.70;;;14.60;;
5900;SDS011;2976;49.764;9.796;2022-10-20T07:59:11;22.93;;;13.70;;
5900;SDS011;2976;49.764;9.796;2022-10-20T08:01:38;25.10;;;14.20;;
5900;SDS011;2976;49.764;9.796;2022-10-20T08:04:03;23.83;;;15.00;;
5900;SDS011;2976;49.764;9.796;2022-10-20T08:06:29;21.20;;;14.90;;
5900;SDS011;2976;49.764;9.796;2022-10-20T08:08:55;22.70;;;15.50;;
5900;SDS011;2976;49.764;9.796;2022-10-20T08:11:20;22.70;;;14.80;;
5900;SDS011;2976;49.764;9.796;2022-10-20T08:13:46;23.97;;;14.23;;
5900;SDS011;2976;49.764;9.796;2022-10-20T08:16:12;19.37;;;14.10;;
5900;SDS011;2976;49.764;9.796;2022-10-20T08:18:39;24.23;;;13.70;;
5900;SDS011;2976;49.764;9.796;2022-10-20T08:23:33;27.70;;;13.17;;
5900;SDS011;2976;49.764;9.796;2022-10-20T08:26:02;27.00;;;13.40;;
5900;SDS011;2976;49.764;9.796;2022-10-20T08:28:27;24.17;;;14.23;;
5900;SDS011;2976;49.764;9.796;2022-10-20T08:30:53;20.60;;;13.03;;
5900;SDS011;2976;49.764;9.796;2022-10-20T08:33:18;20.73;;;13.40;;
5900;SDS011;2976;49.764;9.796;2022-10-20T08:35:44;19.17;;;12.93;;
5900;SDS011;2976;49.764;9.796;2022-10-20T08:38:10;20.27;;;12.33;;
5900;SDS011;2976;49.764;9.796;2022-10-20T08:40:35;20.10;;;13.67;;
5900;SDS011;2976;49.764;9.796;2022-10-20T08:43:06;18.10;;;13.03;;
5900;SDS011;2976;49.764;9.796;2022-10-20T08:45:35;20.50;;;14.07;;
5900;SDS011;2976;49.764;9.796;2022-10-20T08:48:01;17.67;;;13.33;;
5900;SDS011;2976;49.764;9.796;2022-10-20T08:50:26;24.40;;;12.60;;
5900;SDS011;2976;49.764;9.796;2022-10-20T08:52:55;22.27;;;12.23;;
5900;SDS011;2976;49.764;9.796;2022-10-20T08:55:25;14.60;;;11.67;;
5900;SDS011;2976;49.764;9.796;2022-10-20T08:57:55;28.63;;;12.93;;
5900;SDS011;2976;49.764;9.796;2022-10-20T09:00:25;15.30;;;12.37;;
5900;SDS011;2976;49.764;9.796;2022-10-20T09:02:51;24.40;;;13.90;;
5900;SDS011;2976;49.764;9.796;2022-10-20T09:05:20;17.70;;;12.20;;
5900;SDS011;2976;49.764;9.796;2022-10-20T09:07:50;19.77;;;12.90;;
5900;SDS011;2976;49.764;9.796;2022-10-20T09:10:24;17.80;;;13.20;;
5900;SDS011;2976;49.764;9.796;2022-10-20T09:13:00;15.80;;;11.90;;
5900;SDS011;2976;49.764;9.796;2022-10-20T09:15:26;21.23;;;11.87;;
5900;SDS011;2976;49.764;9.796;2022-10-20T09:17:54;18.60;;;12.07;;
5900;SDS011;2976;49.764;9.796;2022-10-20T09:22:55;21.30;;;11.60;;
5900;SDS011;2976;49.764;9.796;2022-10-20T09:25:23;16.00;;;11.40;;
5900;SDS011;2976;49.764;9.796;2022-10-20T09:27:51;17.67;;;12.30;;
5900;SDS011;2976;49.764;9.796;2022-10-20T09:32:48;17.73;;;12.50;;
5900;SDS011;2976;49.764;9.796;2022-10-20T09:37:57;15.50;;;10.93;;
5900;SDS011;2976;49.764;9.796;2022-10-20T09:40:27;18.70;;;11.97;;
5900;SDS011;2976;49.764;9.796;2022-10-20T09:43:00;15.37;;;12.57;;
5900;SDS011;2976;49.764;9.796;2022-10-20T09:45:34;18.10;;;13.53;;
5900;SDS011;2976;49.764;9.796;2022-10-20T09:50:50;15.07;;;12.50;;
5900;SDS011;2976;49.764;9.796;2022-10-20T09:53:21;18.00;;;12.57;;
5900;SDS011;2976;49.764;9.796;2022-10-20T09:55:58;14.20;;;10.90;;
5900;SDS011;2976;49.764;9.796;2022-10-20T09:58:28;16.23;;;11.97;;
5900;SDS011;2976;49.764;9.796;2022-10-20T10:01:03;15.30;;;12.23;;
5900;SDS011;2976;49.764;9.796;2022-10-20T10:03:51;17.20;;;12.13;;
5900;SDS011;2976;49.764;9.796;2022-10-20T10:09:21;17.30;;;11.57;;
5900;SDS011;2976;49.764;9.796;2022-10-20T10:11:48;11.93;;;10.07;;
5900;SDS011;2976;49.764;9.796;2022-10-20T10:14:26;13.43;;;11.03;;
5900;SDS011;2976;49.764;9.796;2022-10-20T10:16:52;15.77;;;11.80;;
5900;SDS011;2976;49.764;9.796;2022-10-20T10:19:19;13.80;;;10.20;;
5900;SDS011;2976;49.764;9.796;2022-10-20T10:22:01;19.40;;;10.50;;
5900;SDS011;2976;49.764;9.796;2022-10-20T10:29:50;20.60;;;12.63;;
5900;SDS011;2976;49.764;9.796;2022-10-20T10:37:25;24.47;;;12.60;;
5900;SDS011;2976;49.764;9.796;2022-10-20T10:39:51;17.50;;;13.40;;
5900;SDS011;2976;49.764;9.796;2022-10-20T10:50:37;18.87;;;13.03;;
5900;SDS011;2976;49.764;9.796;2022-10-20T10:56:21;20.50;;;13.63;;
5900;SDS011;2976;49.764;9.796;2022-10-20T10:59:18;16.73;;;12.57;;
5900;SDS011;2976;49.764;9.796;2022-10-20T11:02:02;19.83;;;12.73;;
5900;SDS011;2976;49.764;9.796;2022-10-20T11:04:59;16.27;;;11.00;;
5900;SDS011;2976;49.764;9.796;2022-10-20T11:07:51;18.73;;;11.13;;
5900;SDS011;2976;49.764;9.796;2022-10-20T11:18:53;17.17;;;11.00;;
5900;SDS011;2976;49.764;9.796;2022-10-20T11:21:48;16.33;;;10.30;;
5900;SDS011;2976;49.764;9.796;2022-10-20T11:27:30;15.13;;;10.97;;
5900;SDS011;2976;49.764;9.796;2022-10-20T11:30:02;12.73;;;10.37;;
5900;SDS011;2976;49.764;9.796;2022-10-20T11:32:35;12.50;;;10.90;;
5900;SDS011;2976;49.764;9.796;2022-10-20T11:35:37;13.60;;;10.43;;
5900;SDS011;2976;49.764;9.796;2022-10-20T11:38:11;16.27;;;10.57;;
5900;SDS011;2976;49.764;9.796;2022-10-20T11:41:12;11.90;;;10.20;;
5900;SDS011;2976;49.764;9.796;2022-10-20T11:46:30;17.50;;;10.40;;
5900;SDS011;2976;49.764;9.796;2022-10-20T11:48:57;21.60;;;10.40;;
5900;SDS011;2976;49.764;9.796;2022-10-20T11:59:28;18.83;;;10.77;;
5900;SDS011;2976;49.764;9.796;2022-10-20T12:05:10;16.93;;;10.70;;
5900;SDS011;2976;49.764;9.796;2022-10-20T12:13:30;15.97;;;10.60;;
5900;SDS011;2976;49.764;9.796;2022-10-20T12:16:02;20.70;;;11.07;;
5900;SDS011;2976;49.764;9.796;2022-10-20T12:20:55;15.17;;;10.10;;
5900;SDS011;2976;49.764;9.796;2022-10-20T12:28:58;16.33;;;9.77;;
5900;SDS011;2976;49.764;9.796;2022-10-20T12:32:21;14.20;;;9.43;;
5900;SDS011;2976;49.764;9.796;2022-10-20T12:34:29;13.93;;;9.80;;
5900;SDS011;2976;49.764;9.796;2022-10-20T12:37:07;11.27;;;9.60;;
5900;SDS011;2976;49.764;9.796;2022-10-20T12:39:40;13.50;;;10.93;;
5900;SDS011;2976;49.764;9.796;2022-10-20T12:42:06;15.57;;;9.80;;
5900;SDS011;2976;49.764;9.796;2022-10-20T12:44:48;12.20;;;9.43;;
5900;SDS011;2976;49.764;9.796;2022-10-20T12:47:27;15.50;;;9.20;;
5900;SDS011;2976;49.764;9.796;2022-10-20T12:49:55;15.97;;;8.83;;
5900;SDS011;2976;49.764;9.796;2022-10-20T12:52:26;11.73;;;9.03;;
5900;SDS011;2976;49.764;9.796;2022-10-20T12:54:57;11.70;;;8.90;;
5900;SDS011;2976;49.764;9.796;2022-10-20T12:57:40;13.30;;;9.10;;
5900;SDS011;2976;49.764;9.796;2022-10-20T13:00:58;12.40;;;9.40;;
5900;SDS011;2976;49.764;9.796;2022-10-20T13:02:55;13.47;;;9.13;;
5900;SDS011;2976;49.764;9.796;2022-10-20T13:05:23;11.23;;;9.07;;
5900;SDS011;2976;49.764;9.796;2022-10-20T13:12:51;16.13;;;9.30;;
5900;SDS011;2976;49.764;9.796;2022-10-20T13:15:18;11.40;;;9.20;;
5900;SDS011;2976;49.764;9.796;2022-10-20T13:17:54;10.97;;;8.77;;
5900;SDS011;2976;49.764;9.796;2022-10-20T13:23:10;14.80;;;9.37;;
5900;SDS011;2976;49.764;9.796;2022-10-20T13:25:50;11.73;;;9.33;;
5900;SDS011;2976;49.764;9.796;2022-10-20T13:28:20;9.87;;;8.07;;
5900;SDS011;2976;49.764;9.796;2022-10-20T13:33:39;11.40;;;8.83;;
5900;SDS011;2976;49.764;9.796;2022-10-20T13:36:18;13.03;;;9.13;;
5900;SDS011;2976;49.764;9.796;2022-10-20T13:39:04;10.00;;;9.00;;
5900;SDS011;2976;49.764;9.796;2022-10-20T13:50:11;11.87;;;7.93;;
5900;SDS011;2976;49.764;9.796;2022-10-20T13:52:44;12.00;;;8.43;;
5900;SDS011;2976;49.764;9.796;2022-10-20T13:55:17;12.27;;;8.50;;
5900;SDS011;2976;49.764;9.796;2022-10-20T13:57:55;13.07;;;8.73;;
5900;SDS011;2976;49.764;9.796;2022-10-20T14:00:27;12.33;;;8.57;;
5900;SDS011;2976;49.764;9.796;2022-10-20T14:03:04;8.73;;;7.73;;
5900;SDS011;2976;49.764;9.796;2022-10-20T14:05:40;10.77;;;8.17;;
5900;SDS011;2976;49.764;9.796;2022-10-20T14:08:09;10.40;;;9.37;;
5900;SDS011;2976;49.764;9.796;2022-10-20T14:10:38;12.70;;;9.07;;
5900;SDS011;2976;49.764;9.796;2022-10-20T14:13:08;16.47;;;8.17;;
5900;SDS011;2976;49.764;9.796;2022-10-20T14:15:37;9.63;;;8.10;;
5900;SDS011;2976;49.764;9.796;2022-10-20T14:18:05;12.00;;;8.93;;
5900;SDS011;2976;49.764;9.796;2022-10-20T14:20:32;14.70;;;9.20;;
5900;SDS011;2976;49.764;9.796;2022-10-20T14:23:01;14.37;;;9.30;;
5900;SDS011;2976;49.764;9.796;2022-10-20T14:25:28;12.63;;;10.90;;
5900;SDS011;2976;49.764;9.796;2022-10-20T14:27:55;13.80;;;9.33;;
5900;SDS011;2976;49.764;9.796;2022-10-20T14:30:22;14.33;;;9.57;;
5900;SDS011;2976;49.764;9.796;2022-10-20T14:32:48;10.87;;;8.87;;
5900;SDS011;2976;49.764;9.796;2022-10-20T14:40:30;16.77;;;11.30;;
5900;SDS011;2976;49.764;9.796;2022-10-20T14:43:03;16.27;;;11.20;;
5900;SDS011;2976;49.764;9.796;2022-10-20T14:45:31;15.27;;;11.00;;
5900;SDS011;2976;49.764;9.796;2022-10-20T14:47:57;20.00;;;10.90;;
5900;SDS011;2976;49.764;9.796;2022-10-20T14:50:26;15.13;;;9.97;;
5900;SDS011;2976;49.764;9.796;2022-10-20T14:53:43;16.60;;;10.20;;
5900;SDS011;2976;49.764;9.796;2022-10-20T14:55:49;12.90;;;9.47;;
5900;SDS011;2976;49.764;9.796;2022-10-20T15:04:16;11.40;;;9.53;;
5900;SDS011;2976;49.764;9.796;2022-10-20T15:07:00;20.73;;;10.80;;
5900;SDS011;2976;49.764;9.796;2022-10-20T15:09:30;12.60;;;10.17;;
5900;SDS011;2976;49.764;9.796;2022-10-20T15:12:34;24.23;;;11.03;;
5900;SDS011;2976;49.764;9.796;2022-10-20T15:15:06;14.00;;;9.47;;
5900;SDS011;2976;49.764;9.796;2022-10-20T15:17:45;17.10;;;10.67;;
5900;SDS011;2976;49.764;9.796;2022-10-20T15:20:31;16.33;;;10.80;;
5900;SDS011;2976;49.764;9.796;2022-10-20T15:23:19;13.07;;;10.10;;
5900;SDS011;2976;49.764;9.796;2022-10-20T15:30:53;12.37;;;9.23;;
5900;SDS011;2976;49.764;9.796;2022-10-20T15:33:19;16.60;;;11.10;;
5900;SDS011;2976;49.764;9.796;2022-10-20T15:35:45;14.93;;;11.00;;
5900;SDS011;2976;49.764;9.796;2022-10-20T15:38:12;11.73;;;10.37;;
5900;SDS011;2976;49.764;9.796;2022-10-20T15:40:41;20.20;;;11.10;;
5900;SDS011;2976;49.764;9.796;2022-10-20T15:43:09;11.37;;;10.17;;
5900;SDS011;2976;49.764;9.796;2022-10-20T15:45:40;18.13;;;10.67;;
5900;SDS011;2976;49.764;9.796;2022-10-20T15:48:09;22.57;;;11.33;;
5900;SDS011;2976;49.764;9.796;2022-10-20T15:50:35;15.37;;;10.50;;
5900;SDS011;2976;49.764;9.796;2022-10-20T15:53:01;20.13;;;11.33;;
5900;SDS011;2976;49.764;9.796;2022-10-20T15:55:28;15.90;;;11.63;;
5900;SDS011;2976;49.764;9.796;2022-10-20T15:57:56;15.83;;;11.53;;
5900;SDS011;2976;49.764;9.796;2022-10-20T16:00:23;16.03;;;12.50;;
5900;SDS011;2976;49.764;9.796;2022-10-20T16:02:50;29.63;;;13.30;;
5900;SDS011;2976;49.764;9.796;2022-10-20T16:05:17;19.43;;;13.67;;
5900;SDS011;2976;49.764;9.796;2022-10-20T16:07:43;21.47;;;14.53;;
5900;SDS011;2976;49.764;9.796;2022-10-20T16:10:10;16.20;;;11.90;;
5900;SDS011;2976;49.764;9.796;2022-10-20T16:12:37;32.53;;;15.23;;
5900;SDS011;2976;49.764;9.796;2022-10-20T16:15:04;31.47;;;16.63;;
5900;SDS011;2976;49.764;9.796;2022-10-20T16:17:31;27.00;;;17.53;;
5900;SDS011;2976;49.764;9.796;2022-10-20T16:19:57;34.03;;;16.63;;
5900;SDS011;2976;49.764;9.796;2022-10-20T16:22:23;41.07;;;27.40;;
5900;SDS011;2976;49.764;9.796;2022-10-20T16:24:50;42.23;;;31.33;;
5900;SDS011;2976;49.764;9.796;2022-10-20T16:27:16;26.57;;;19.50;;
5900;SDS011;2976;49.764;9.796;2022-10-20T16:29:42;27.50;;;15.43;;
5900;SDS011;2976;49.764;9.796;2022-10-20T16:32:07;23.03;;;15.23;;
5900;SDS011;2976;49.764;9.796;2022-10-20T16:34:33;22.20;;;14.40;;
5900;SDS011;2976;49.764;9.796;2022-10-20T16:36:58;19.00;;;13.67;;
5900;SDS011;2976;49.764;9.796;2022-10-20T16:39:24;22.30;;;15.63;;
5900;SDS011;2976;49.764;9.796;2022-10-20T16:41:50;23.73;;;17.20;;
5900;SDS011;2976;49.764;9.796;2022-10-20T16:44:15;24.13;;;17.03;;
5900;SDS011;2976;49.764;9.796;2022-10-20T16:46:41;24.60;;;16.40;;
5900;SDS011;2976;49.764;9.796;2022-10-20T16:49:06;36.60;;;21.70;;
5900;SDS011;2976;49.764;9.796;2022-10-20T16:51:32;31.37;;;18.80;;
5900;SDS011;2976;49.764;9.796;2022-10-20T16:53:58;33.40;;;21.00;;
5900;SDS011;2976;49.764;9.796;2022-10-20T16:56:23;25.37;;;17.90;;
5900;SDS011;2976;49.764;9.796;2022-10-20T16:58:50;22.33;;;15.03;;
5900;SDS011;2976;49.764;9.796;2022-10-20T17:01:16;26.30;;;14.10;;
5900;SDS011;2976;49.764;9.796;2022-10-20T17:03:50;20.57;;;13.97;;
5900;SDS011;2976;49.764;9.796;2022-10-20T17:06:18;20.33;;;12.93;;
5900;SDS011;2976;49.764;9.796;2022-10-20T17:08:44;25.40;;;16.23;;
5900;SDS011;2976;49.764;9.796;2022-10-20T17:11:11;20.57;;;15.23;;
5900;SDS011;2976;49.764;9.796;2022-10-20T17:13:37;25.37;;;15.57;;
5900;SDS011;2976;49.764;9.796;2022-10-20T17:16:13;20.50;;;13.50;;
5900;SDS011;2976;49.764;9.796;2022-10-20T17:18:41;15.87;;;12.40;;
5900;SDS011;2976;49.764;9.796;2022-10-20T17:21:07;35.97;;;14.50;;
5900;SDS011;2976;49.764;9.796;2022-10-20T17:23:34;27.70;;;14.17;;
5900;SDS011;2976;49.764;9.796;2022-10-20T17:26:03;23.60;;;14.63;;